Station: Sunshine Coast Airport  

  Atmospheric Gas Attenuation - ITU Rec 676-11   ----------------- dB/100km -----------------
Date Time Temp RH % AH g/m3 Dew Point Wind Direction Speed kph Gust kph Barometer mB Rainfall Since 9am 24GHz 47GHz 76GHz 122GHz 134GHz 241GHz
06/05 21:20 21.1 87 16.03 18.9 17 19 1017.3 0 35.0 36.4 67.2 177.6 190.8 661.8
06/05 21:10 21.2 87 16.12 18.9 11 13 1017.3 0 35.2 36.5 67.6 178.5 191.9 665.7
06/05 21:00 21.2 87 16.12 18.9 13 17 1017.2 0 35.2 36.5 67.6 178.5 191.9 665.6
06/05 20:50 21.2 88 16.31 19.1 13 15 1017.5 0 35.6 36.9 68.5 180.9 194.8 675.8
06/05 20:40 21.2 88 16.31 19.1 15 17 1017.3 0 35.6 36.9 68.5 180.8 194.8 675.7
06/05 20:30 21.2 88 16.31 19.1 13 19 1017.2 0 35.6 36.9 68.4 180.8 194.7 675.7
06/05 20:20 21.2 88 16.31 19.1 9 11 1017.4 0 35.6 36.9 68.5 180.9 194.8 675.8
06/05 20:10 21.3 87 16.22 19 9 11 1017.4 0 35.4 36.7 67.9 179.5 193.1 670.1
06/05 20:00 21.5 87 16.4 19.2 11 15 1017.2 0 35.7 36.9 68.6 181.2 195.3 677.8
06/05 19:50 21.6 87 16.5 19.3 11 13 1017.2 0 35.9 37.1 69.0 182.2 196.6 682.2
06/05 19:40 21.6 87 16.5 19.3 15 17 1017.2 0 35.9 37.1 69.0 182.2 196.6 682.2
06/05 19:30 21.6 87 16.5 19.3 13 17 1017.1 0 35.9 37.1 69.0 182.2 196.6 682.1
06/05 19:20 21.7 87 16.59 19.4 13 17 1017.2 0 36.1 37.2 69.3 183.1 197.7 686.0
06/05 19:10 21.7 87 16.59 19.4 11 13 1017.1 0 36.1 37.2 69.3 183.1 197.7 686.0
06/05 19:00 21.8 87 16.69 19.5 13 15 1016.9 0 36.3 37.3 69.7 184.1 198.9 690.3
06/05 18:50 21.8 87 16.69 19.5 11 13 1016.8 0 36.3 37.3 69.6 184.0 198.9 690.2
06/05 18:40 21.8 87 16.69 19.5 15 17 1016.7 0 36.3 37.3 69.6 184.0 198.9 690.2
06/05 18:30 21.8 87 16.69 19.5 13 17 1016.5 0 36.3 37.3 69.6 184.0 198.9 690.1
06/05 18:20 21.7 86 16.4 19.3 13 13 1016.5 0 35.7 36.8 68.4 180.7 194.7 675.6
06/05 18:10 21.9 86 16.59 19.5 15 17 1016.4 0 36.1 37.1 69.1 182.5 197.1 683.8
06/05 18:00 22.3 83 16.39 19.3 15 20 1016.2 0 35.6 36.5 67.8 179.1 193.0 669.7
06/05 17:50 22 85 16.5 19.4 15 17 1016.2 0 35.9 36.8 68.5 181.1 195.4 678.1
06/05 17:40 21.9 85 16.4 19.3 13 15 1016.1 0 35.7 36.7 68.2 180.1 194.1 673.7
06/05 17:30 22.1 85 16.59 19.5 11 13 1016.1 0 36.1 37.0 68.9 182.0 196.5 681.9
06/05 17:20 22.1 85 16.59 19.5 13 13 1016.1 0 36.1 37.0 68.9 182.0 196.5 681.9
06/05 17:10 22.4 82 16.28 19.2 19 20 1016.1 0 35.4 36.3 67.2 177.5 191.1 663.0
06/05 17:00 23.2 80 16.63 19.6 19 24 1015.8 0 36.1 36.5 68.0 179.8 194.2 674.0
06/05 16:50 23.3 80 16.73 19.7 19 22 1015.8 0 36.3 36.7 68.4 180.8 195.4 678.3
06/05 16:40 23.6 75 15.95 18.9 15 17 1015.8 0 34.6 35.1 64.6 170.7 183.2 635.7
06/05 16:30 23.8 73 15.7 18.7 15 19 1015.7 0 34.1 34.6 63.4 167.3 179.1 621.4
06/05 16:20 23.9 72 15.58 18.5 15 20 1015.7 0 33.8 34.4 62.7 165.7 177.1 614.6
06/05 16:10 23.9 72 15.58 18.5 17 19 1015.5 0 33.8 34.4 62.7 165.7 177.1 614.5
06/05 16:00 24.2 70 15.4 18.4 17 22 1015.4 0 33.4 33.9 61.7 163.0 173.8 603.1
06/05 15:50 24.1 73 15.97 19 17 20 1015.4 0 34.6 35.0 64.3 169.8 182.2 632.4
06/05 15:40 24.2 72 15.84 18.8 17 20 1015.3 0 34.3 34.7 63.6 168.1 180.1 625.0
06/05 15:30 24.3 71 15.71 18.7 17 22 1015.2 0 34.0 34.4 63.0 166.3 178.0 617.7
06/05 15:20 24.4 74 16.47 19.5 17 20 1015.4 0 35.6 35.7 66.2 175.1 188.7 655.2
06/05 15:10 24.3 74 16.37 19.4 19 20 1015.4 0 35.4 35.6 65.9 174.1 187.5 651.0
06/05 15:00 24.7 73 16.52 19.5 20 26 1015.3 0 35.7 35.7 66.2 175.0 188.7 655.1
06/05 14:50 24.5 74 16.56 19.6 20 22 1015.4 0 35.8 35.8 66.6 175.9 189.8 658.9
06/05 14:40 24.6 74 16.65 19.7 17 19 1015.5 0 36.0 36.0 66.9 176.8 190.9 662.7
06/05 14:30 24.4 72 16.02 19 20 26 1015.4 0 34.7 34.9 64.3 169.7 182.2 632.4
06/05 14:20 24.6 74 16.65 19.7 22 26 1015.6 0 36.0 36.0 66.9 176.8 190.9 662.7
06/05 14:10 25 76 17.49 20.5 20 24 1015.5 0 37.7 37.3 70.3 185.9 202.2 702.2
06/05 14:00 24.6 74 16.65 19.7 24 30 1015.5 0 36.0 36.0 66.9 176.8 190.9 662.7
06/05 13:50 24.6 74 16.65 19.7 24 28 1015.7 0 36.0 36.0 66.9 176.8 190.9 662.8
06/05 13:40 25 72 16.57 19.6 24 30 1015.7 0 35.8 35.7 66.2 174.9 188.7 655.3
06/05 13:30 24.8 74 16.84 19.8 22 28 1015.6 0 36.4 36.2 67.6 178.6 193.2 670.7
06/05 13:20 24.4 74 16.47 19.5 24 26 1015.9 0 35.6 35.7 66.3 175.1 188.8 655.4
06/05 13:10 24.9 75 17.17 20.2 19 20 1016 0 37.1 36.8 69.0 182.3 197.8 686.9
06/05 13:00 24.8 71 16.16 19.2 20 24 1015.9 0 34.9 35.0 64.6 170.6 183.3 636.4
06/05 12:50 24.8 71 16.16 19.2 19 22 1016 0 34.9 35.0 64.6 170.6 183.3 636.4
06/05 12:40 25.4 69 16.24 19.3 22 24 1016.1 0 35.1 34.9 64.4 170.2 183.0 635.5
06/05 12:30 25.2 70 16.3 19.3 20 26 1016 0 35.2 35.1 64.8 171.3 184.4 640.1
06/05 12:20 25.2 68 15.83 18.9 22 28 1016.2 0 34.2 34.3 62.8 165.9 177.7 616.8
06/05 12:10 25.5 68 16.1 19.2 20 24 1016.3 0 34.7 34.7 63.7 168.4 180.8 627.8
06/05 12:00 25.4 71 16.71 19.8 20 26 1016.3 0 36.0 35.8 66.5 175.7 189.8 659.2
06/05 11:50 25.3 71 16.62 19.7 20 24 1016.6 0 35.9 35.7 66.2 175.0 188.8 655.6
06/05 11:40 25.4 72 16.95 20 17 19 1016.7 0 36.6 36.2 67.6 178.6 193.4 671.5
06/05 11:30 25.2 67 15.6 18.6 17 22 1016.7 0 33.7 33.9 61.8 163.3 174.5 605.7
06/05 11:20 25.5 69 16.34 19.4 19 20 1016.9 0 35.3 35.1 64.8 171.3 184.3 640.0
06/05 11:00 25 73 16.8 19.8 20 28 1017.1 0 36.3 36.1 67.3 177.8 192.3 667.6
06/05 09:40 25 73 16.8 19.8 19 26 1017.7 0 36.3 36.2 67.3 177.9 192.3 667.9
06/05 09:30 24.3 73 16.15 19.1 20 26 1017.6 0 35.0 35.3 65.0 171.8 184.6 640.8
06/05 09:20 24.2 74 16.28 19.3 22 26 1017.7 0 35.2 35.6 65.7 173.6 186.8 648.3
06/05 09:10 24 76 16.53 19.5 22 24 1017.7 0 35.8 36.1 67.0 177.0 190.9 662.8
06/05 09:00 23.6 76 16.16 19.1 19 24 1017.6 0 35.0 35.6 65.7 173.5 186.5 647.2
06/05 08:50 23.8 78 16.78 19.7 19 22 1017.7 0.2 36.3 36.6 68.3 180.5 195.1 677.4
06/05 08:40 23.7 79 16.9 19.8 17 19 1017.6 0.2 36.6 36.9 68.9 182.2 197.2 684.5
06/05 08:30 22.9 79 16.14 19.1 20 24 1017.5 0.2 35.1 35.8 66.2 174.8 187.9 652.1
06/05 08:20 22.7 80 16.16 19.1 19 24 1017.6 0.2 35.1 36.0 66.5 175.5 188.7 654.9
06/05 08:10 22.5 81 16.18 19.1 20 24 1017.4 0.2 35.2 36.1 66.7 176.2 189.5 657.5
06/05 08:00 22.1 82 16.01 18.9 19 22 1017.3 0.2 34.8 35.9 66.3 175.1 187.9 652.1
06/05 07:50 21.8 83 15.92 18.8 19 20 1017.3 0.2 34.7 35.9 66.1 174.7 187.3 650.0
06/05 07:40 21.6 83 15.74 18.6 17 19 1017.1 0.2 34.3 35.6 65.5 172.9 185.1 642.2
06/05 07:30 21.5 85 16.03 18.9 17 24 1016.9 0.2 34.9 36.2 66.9 176.6 189.7 658.1
06/05 07:20 21.2 86 15.94 18.8 19 22 1017 0.2 34.8 36.2 66.7 176.2 189.1 656.1
06/05 07:10 20.9 89 16.21 19 19 20 1016.9 0.2 35.4 36.8 68.2 180.3 194.0 672.9
06/05 07:00 20.5 91 16.19 19 13 19 1016.8 0.2 35.4 36.9 68.5 180.9 194.7 675.3
06/05 06:50 19.8 92 15.71 18.5 11 13 1016.9 0.2 34.4 36.4 66.9 176.6 189.1 656.0
06/05 06:40 19.3 92 15.26 18 11 11 1016.8 0.2 33.5 35.7 65.2 172.2 183.5 636.3
06/05 06:30 19 92 14.99 17.7 9 11 1016.6 0.2 32.9 35.3 64.2 169.5 180.1 624.4
06/05 06:20 19.1 91 14.92 17.6 9 11 1016.6 0.2 32.8 35.2 63.8 168.4 178.8 619.9
06/05 06:10 19.1 90 14.75 17.4 9 9 1016.5 0.2 32.4 34.8 63.0 166.3 176.2 611.0
06/05 06:00 19.5 90 15.1 17.8 11 15 1016.3 0.2 33.1 35.3 64.3 169.7 180.5 626.0
06/05 05:50 19.9 90 15.46 18.2 11 13 1016.4 0.2 33.9 35.8 65.6 173.2 185.0 641.6
06/05 05:40 20 91 15.73 18.5 15 17 1016.4 0.2 34.4 36.3 66.8 176.3 188.9 655.1
06/05 05:30 20.1 91 15.82 18.6 15 17 1016.2 0.2 34.6 36.4 67.1 177.2 190.0 658.9
06/05 05:20 20.1 91 15.82 18.6 13 17 1016.3 0.2 34.6 36.4 67.1 177.2 190.0 658.9
06/05 05:10 20.1 91 15.82 18.6 17 17 1016.2 0.2 34.6 36.4 67.1 177.2 190.0 658.9
06/05 05:00 20 92 15.9 18.7 15 22 1016.1 0.2 34.8 36.6 67.5 178.4 191.4 664.0
06/05 04:50 19.8 93 15.88 18.6 17 19 1016.1 0.2 34.8 36.6 67.6 178.6 191.6 664.6
06/05 04:40 19.5 94 15.77 18.5 13 15 1016.1 0.2 34.6 36.6 67.4 178.0 190.7 661.4
06/05 04:30 19.1 93 15.24 17.9 11 13 1016.1 0.2 33.5 35.7 65.2 172.3 183.6 636.6
06/05 04:20 19.1 93 15.24 17.9 11 11 1016.1 0.2 33.5 35.7 65.2 172.3 183.6 636.6
06/05 04:10 19.1 93 15.24 17.9 11 11 1016.1 0.2 33.5 35.7 65.2 172.3 183.6 636.6
06/05 04:00 19.1 93 15.24 17.9 9 11 1016.1 0.2 33.5 35.7 65.2 172.3 183.6 636.6
06/05 03:50 19.1 93 15.24 17.9 7 9 1016.1 0.2 33.5 35.7 65.2 172.3 183.6 636.6
06/05 03:40 19.2 93 15.33 18 9 11 1016.1 0.2 33.7 35.9 65.6 173.2 184.7 640.5
06/05 03:30 19 93 15.15 17.8 7 9 1016 0.2 33.3 35.6 64.9 171.4 182.5 632.6

Last Refresh: 06-May-2026 20:54:23

Bureau of Meteorology